Currently 70°F in Beaumont, California, USA
70°F
70°F / 56°F
4 mph S
0.00"
Friday, November 15, 2019 12:46 PM PST

Beaumont, California Weather Summary
Last 36 Hours

Temperature Winds Hourly Humidity Dewpoint
Time Report Norm Report Norm Max Gusts Precip. Rpt. Norm Rpt. Norm Pressure
1Fri 12:46 PM  69.6°F  65°F  4 mph S  6 mph  12 mph  0.00"  30%  30%  36°F  31°F  30.02"
2Fri 12:44 PM  69.6°F  65°F  4 mph S  7 mph  12 mph  ----  30%  30%  36°F  31°F  30.03"
Fri 12:01 PM  67.8°F  64°F  6 mph S  6 mph  12 mph  0.00"  31%  31%  35°F  31°F  30.04"
Fri 11:00 AM  67.8°F  63°F  2 mph S  7 mph  10 mph  0.00"  30%  32%  34°F  32°F  30.07"
Fri 10:00 AM  67.3°F  62°F  4 mph S  6 mph  10 mph  0.00"  29%  33%  33°F  32°F  30.09"
Fri 09:00 AM  65.7°F  60°F  3 mph SW  5 mph  7 mph  0.00"  32%  36%  34°F  32°F  30.08"
Fri 08:00 AM  64.6°F  59°F  3 mph W  4 mph  3 mph  0.00"  27%  37%  28°F  31°F  30.09"
Fri 07:00 AM  59.7°F  56°F  1 mph W  3 mph  6 mph  0.00"  27%  38%  24°F  29°F  30.08"
Fri 06:00 AM  57.4°F  54°F  4 mph W  3 mph  6 mph  0.00"  29%  38%  24°F  28°F  30.09"
Fri 05:00 AM  56.7°F  55°F  2 mph W  3 mph  6 mph  0.00"  35%  38%  28°F  29°F  30.08"
Fri 04:00 AM  57.2°F  55°F  4 mph W  4 mph  6 mph  0.00"  34%  40%  28°F  30°F  30.07"
3Fri 03:09 AM  55.8°F  55°F  4 mph W  3 mph  6 mph  ----  34%  40%  27°F  30°F  30.07"
Fri 03:00 AM  56.1°F  55°F  4 mph W  3 mph  3 mph  0.00"  34%  40%  27°F  30°F  30.08"
Fri 02:00 AM  57.4°F  55°F  2 mph W  3 mph  6 mph  0.00"  33%  40%  27°F  30°F  30.09"
Fri 01:00 AM  56.5°F  55°F  3 mph W  3 mph  3 mph  0.00"  37%  40%  29°F  30°F  30.10"
Fri 12:00 AM  56.7°F  55°F  3 mph W  3 mph  3 mph  0.00"  39%  40%  31°F  30°F  30.10"
Thu 11:00 PM  56.8°F  56°F  1 mph W  3 mph  3 mph  0.00"  47%  40%  36°F  31°F  30.11"
Thu 10:00 PM  57.2°F  56°F  1 mph W  3 mph  3 mph  0.00"  40%  40%  32°F  31°F  30.11"
Thu 09:00 PM  56.1°F  56°F  calm  4 mph  3 mph  0.00"  39%  39%  30°F  31°F  30.11"
Thu 08:00 PM  56.8°F  57°F  2 mph W  4 mph  6 mph  0.00"  38%  38%  30°F  31°F  30.10"
Thu 07:00 PM  60.3°F  58°F  1 mph W  4 mph  6 mph  0.00"  32%  38%  29°F  31°F  30.08"
Thu 06:00 PM  62.8°F  58°F  1 mph W  4 mph  16 mph  0.00"  28%  36%  28°F  30°F  30.07"
Thu 05:00 PM  63.3°F  60°F  5 mph NW  3 mph  10 mph  0.00"  31%  35%  31°F  31°F  30.06"
Thu 04:00 PM  67.6°F  63°F  3 mph W  5 mph  10 mph  0.00"  23%  32%  27°F  31°F  30.05"
Thu 03:00 PM  70.7°F  64°F  1 mph SW  6 mph  10 mph  0.00"  21%  30%  27°F  31°F  30.03"
Thu 02:00 PM  71.1°F  65°F  4 mph SW  7 mph  12 mph  0.00"  21%  29%  28°F  31°F  30.04"
Thu 01:00 PM  72.3°F  65°F  3 mph W  7 mph  13 mph  0.00"  18%  30%  25°F  32°F  30.05"
Thu 12:00 PM  70.9°F  64°F  4 mph SW  7 mph  12 mph  0.00"  19%  31%  25°F  32°F  30.06"
Thu 11:00 AM  68.5°F  63°F  6 mph S  7 mph  12 mph  0.00"  22%  32%  27°F  32°F  30.08"
Thu 10:00 AM  67.3°F  62°F  8 mph S  6 mph  12 mph  0.00"  25%  34%  29°F  32°F  30.09"
Thu 09:00 AM  64.9°F  60°F  5 mph S  5 mph  9 mph  0.00"  27%  36%  29°F  32°F  30.09"
Thu 08:00 AM  64.9°F  59°F  4 mph S  4 mph  7 mph  0.00"  28%  38%  30°F  32°F  30.08"
Thu 07:00 AM  60.1°F  56°F  3 mph W  3 mph  6 mph  0.00"  30%  38%  27°F  30°F  30.06"
Thu 06:00 AM  57.4°F  55°F  3 mph W  4 mph  7 mph  0.00"  31%  39%  26°F  29°F  30.03"
Thu 05:00 AM  57.9°F  55°F  4 mph W  3 mph  6 mph  0.00"  33%  39%  28°F  29°F  30.02"
Thu 04:00 AM  57.7°F  55°F  1 mph W  4 mph  3 mph  0.00"  34%  40%  28°F  30°F  30.02"
Thu 03:00 AM  59.0°F  55°F  3 mph W  3 mph  6 mph  0.00"  32%  40%  28°F  30°F  30.02"
Thu 02:00 AM  57.0°F  55°F  1 mph W  3 mph  3 mph  0.00"  33%  40%  27°F  30°F  30.02"
Thu 01:00 AM  57.9°F  55°F  1 mph W  3 mph  3 mph  0.00"  34%  40%  29°F  30°F  30.02"

  1. Current weather data. No green row appears if the current weather data is also the high or low for the current day.
  2. High temperature for the current day.
  3. Low temperature for the current day.

The Beaumont, California weather pages are a service of WeatherCurrents. Cherry Valley is located in northern Riverside County, California, a community of the northern part of Beaumont, along the Interstate 10 highway, in the San Gorgonio pass area, between the communities of Calimesa, Banning.
Copyright ©2019  WeatherCurrents. All rights reserved. - Submit questions and comments - Privacy Policy

This page automatically refreshes every 10 minutes.